Time;durP1;ratioP1;P1;durP2;ratioP2;P2;SDS_P1;SDS_P2;PMS_P1;PMS_P2;Temp;Humidity;BMP_temperature;BMP_pressure;BME280_temperature;BME280_humidity;BME280_pressure;Samples;Min_cycle;Max_cycle;Signal;HPM_P1;HPM_P2
2022/03/11 00:01:01;;;;;;;;;27.00;24.00;;;;;13.01;51.71;101027.50;5098597;27;45483;-82
2022/03/11 00:03:26;;;;;;;;;29.00;27.50;;;;;13.02;51.98;101022.19;5098155;27;47424;-82
2022/03/11 00:05:52;;;;;;;;;31.50;28.50;;;;;13.00;51.87;101013.38;5099412;27;45237;-82
2022/03/11 00:08:18;;;;;;;;;30.00;27.75;;;;;13.09;51.80;101017.78;5098149;27;45330;-82
2022/03/11 00:10:43;;;;;;;;;33.00;27.25;;;;;13.11;51.84;101008.97;5099394;27;45674;-82
2022/03/11 00:13:08;;;;;;;;;30.50;25.75;;;;;13.08;51.74;101001.00;5089607;27;47325;-81
2022/03/11 00:15:34;;;;;;;;;24.00;22.50;;;;;13.10;51.77;101007.22;5094198;27;45417;-82
2022/03/11 00:18:00;;;;;;;;;30.00;22.75;;;;;13.11;51.48;101000.16;5096686;27;45282;-83
2022/03/11 00:20:25;;;;;;;;;31.50;27.00;;;;;13.13;51.64;100998.38;5078909;27;45397;-84
2022/03/11 00:22:51;;;;;;;;;22.75;19.75;;;;;13.10;51.58;100993.97;5076912;28;48427;-82
2022/03/11 00:25:16;;;;;;;;;25.50;22.75;;;;;13.08;51.86;100984.22;5083297;27;45430;-82
2022/03/11 00:27:42;;;;;;;;;26.25;25.75;;;;;13.08;51.99;100986.88;5096309;27;45425;-82
2022/03/11 00:30:08;;;;;;;;;25.25;21.25;;;;;13.09;51.98;100986.88;5098041;27;45730;-84
2022/03/11 00:32:33;;;;;;;;;29.75;26.75;;;;;13.07;51.98;100975.38;5096377;27;47362;-83
2022/03/11 00:34:59;;;;;;;;;28.75;21.50;;;;;13.09;51.94;100976.25;5079242;27;49352;-82
2022/03/11 00:37:24;;;;;;;;;23.25;23.25;;;;;13.05;52.17;100969.19;5082659;27;45323;-83
2022/03/11 00:39:50;;;;;;;;;29.00;23.50;;;;;12.99;52.00;100979.75;5099305;27;45401;-82
2022/03/11 00:42:15;;;;;;;;;31.25;24.00;;;;;12.94;51.97;100973.56;5096994;27;46917;-83
2022/03/11 00:44:41;;;;;;;;;28.75;23.50;;;;;12.96;51.97;100978.88;5097227;27;45354;-82
2022/03/11 00:47:09;;;;;;;;;25.75;23.75;;;;;12.98;52.22;100985.94;5097187;27;45573;-81
2022/03/11 00:49:38;;;;;;;;;22.25;21.00;;;;;12.92;51.98;100967.38;5097407;27;45418;-82
2022/03/11 00:52:04;;;;;;;;;27.25;20.75;;;;;12.98;51.66;100969.16;5090579;27;46481;-81
2022/03/11 00:54:29;;;;;;;;;25.25;22.75;;;;;12.99;52.00;100973.56;5076978;28;45513;-83
2022/03/11 00:56:55;;;;;;;;;32.00;28.25;;;;;12.88;51.84;100941.72;5078161;27;45299;-83
2022/03/11 00:59:20;;;;;;;;;28.00;23.25;;;;;13.03;51.91;100957.69;5084786;27;45432;-82
2022/03/11 01:01:46;;;;;;;;;21.00;21.00;;;;;13.05;51.99;100955.94;5093204;27;46696;-84
2022/03/11 01:04:11;;;;;;;;;23.75;21.00;;;;;13.10;51.83;100947.97;5078167;27;45480;-84
2022/03/11 01:06:37;;;;;;;;;28.50;23.75;;;;;13.15;51.79;100948.00;5078121;27;46025;-83
2022/03/11 01:09:03;;;;;;;;;24.75;23.50;;;;;13.18;51.81;100950.66;5078067;27;45385;-83
2022/03/11 01:11:28;;;;;;;;;23.00;20.75;;;;;13.24;51.67;100948.06;5077425;27;45836;-82
2022/03/11 01:13:54;;;;;;;;;22.00;19.25;;;;;13.25;51.59;100948.06;5076685;28;45256;-81
2022/03/11 01:16:19;;;;;;;;;26.50;24.00;;;;;13.30;51.26;100946.28;5081915;27;45429;-81
2022/03/11 01:18:45;;;;;;;;;21.75;17.00;;;;;13.28;51.45;100934.81;5088683;27;45220;-81
2022/03/11 01:21:11;;;;;;;;;22.50;17.75;;;;;13.35;51.39;100939.22;5081785;27;45848;-82
2022/03/11 01:23:36;;;;;;;;;21.25;19.25;;;;;13.38;51.42;100938.38;5097676;27;45372;-81
2022/03/11 01:26:02;;;;;;;;;21.50;20.50;;;;;13.39;51.29;100936.59;5079006;27;45275;-85
2022/03/11 01:28:27;;;;;;;;;22.50;20.50;;;;;13.40;51.09;100933.06;5087546;27;45361;-82
2022/03/11 01:30:52;;;;;;;;;25.25;21.50;;;;;13.35;51.31;100925.09;5076804;27;55209;-81
2022/03/11 01:33:18;;;;;;;;;20.75;20.75;;;;;13.36;51.28;100918.91;5097241;27;45390;-81
2022/03/11 01:35:43;;;;;;;;;26.50;18.75;;;;;13.35;51.32;100927.75;5096532;27;45925;-82
2022/03/11 01:38:09;;;;;;;;;19.50;17.25;;;;;13.33;51.29;100927.75;5096809;27;45464;-83
2022/03/11 01:40:34;;;;;;;;;22.75;20.50;;;;;13.26;51.25;100911.81;5097694;27;46661;-83
2022/03/11 01:43:00;;;;;;;;;22.50;18.00;;;;;13.26;51.17;100918.03;5097680;27;46049;-81
2022/03/11 01:45:25;;;;;;;;;22.75;17.25;;;;;13.25;51.26;100916.22;5096615;27;45404;-81
2022/03/11 01:47:50;;;;;;;;;20.00;15.25;;;;;13.20;51.10;100906.47;5097309;27;45559;-82
2022/03/11 01:50:16;;;;;;;;;24.00;19.75;;;;;13.16;51.50;100905.59;5097083;27;51935;-82
2022/03/11 01:52:41;;;;;;;;;27.00;22.25;;;;;13.14;51.43;100901.16;5093114;27;45389;-84
2022/03/11 01:55:07;;;;;;;;;23.00;19.75;;;;;13.11;51.72;100900.28;5086007;27;45454;-82
2022/03/11 01:57:34;;;;;;;;;24.25;22.00;;;;;13.11;51.62;100891.44;5081397;27;45489;-83
2022/03/11 02:00:00;;;;;;;;;24.00;21.00;;;;;13.14;51.73;100890.56;5093342;27;46192;-83
2022/03/11 02:02:25;;;;;;;;;22.25;22.00;;;;;13.19;51.51;100886.16;5097260;27;45374;-83
2022/03/11 02:04:50;;;;;;;;;26.00;20.50;;;;;13.24;51.28;100895.03;5097532;27;45965;-83
2022/03/11 02:07:16;;;;;;;;;26.25;19.50;;;;;13.27;51.40;100884.44;5079328;27;45433;-82
2022/03/11 02:09:41;;;;;;;;;19.25;19.25;;;;;13.25;51.43;100876.47;5096294;27;45876;-81
2022/03/11 02:12:07;;;;;;;;;26.75;22.00;;;;;13.32;51.50;100888.84;5089361;27;45295;-82
2022/03/11 02:14:33;;;;;;;;;23.75;21.00;;;;;13.35;51.26;100883.53;5082698;27;45445;-82
2022/03/11 02:16:58;;;;;;;;;23.00;19.75;;;;;13.38;51.11;100887.09;5094936;27;45575;-81
2022/03/11 02:19:24;;;;;;;;;22.50;18.25;;;;;13.38;51.04;100890.63;5089864;27;53107;-81
2022/03/11 02:21:50;;;;;;;;;21.25;17.25;;;;;13.38;51.19;100890.63;5082460;27;46420;-84
2022/03/11 02:24:15;;;;;;;;;21.50;21.50;;;;;13.33;51.15;100885.31;5082579;27;46326;-82
2022/03/11 02:26:41;;;;;;;;;21.25;20.25;;;;;13.40;51.02;100891.50;5100576;27;45310;-82
2022/03/11 02:29:06;;;;;;;;;20.75;17.50;;;;;13.37;51.12;100875.59;5100444;27;47839;-83
2022/03/11 02:31:32;;;;;;;;;23.00;21.00;;;;;13.42;51.07;100883.53;5104276;27;45405;-82
2022/03/11 02:33:59;;;;;;;;;23.75;19.25;;;;;13.42;50.76;100884.41;5090898;27;45444;-83
2022/03/11 02:36:25;;;;;;;;;18.75;17.25;;;;;13.42;51.04;100875.56;5082245;28;45384;-82
2022/03/11 02:38:50;;;;;;;;;21.50;20.00;;;;;13.31;51.00;100844.63;5083398;27;46627;-82
2022/03/11 02:41:15;;;;;;;;;21.25;19.25;;;;;13.42;51.09;100859.66;5083170;27;45352;-83
2022/03/11 02:43:42;;;;;;;;;21.75;17.50;;;;;13.40;50.94;100867.63;5083614;27;45232;-82
2022/03/11 02:46:08;;;;;;;;;19.75;19.75;;;;;13.43;51.12;100872.06;5065575;28;45517;-82
2022/03/11 02:48:34;;;;;;;;;23.25;20.50;;;;;13.42;51.10;100870.28;5083138;27;45638;-83
2022/03/11 02:50:59;;;;;;;;;24.00;19.50;;;;;13.41;51.02;100869.38;5083139;27;45336;-83
2022/03/11 02:53:25;;;;;;;;;19.50;18.25;;;;;13.38;50.89;100858.81;5082172;28;45367;-84
2022/03/11 02:55:50;;;;;;;;;23.00;18.25;;;;;13.40;51.06;100856.13;5065616;28;45340;-82
2022/03/11 02:58:15;;;;;;;;;22.50;20.50;;;;;13.35;50.97;100859.66;5082852;27;53611;-81
2022/03/11 03:00:41;;;;;;;;;20.25;17.75;;;;;13.34;51.08;100862.31;5081773;28;45422;-84
2022/03/11 03:03:06;;;;;;;;;22.25;19.00;;;;;13.23;51.15;100843.75;5083352;27;45369;-81
2022/03/11 03:05:32;;;;;;;;;21.25;16.75;;;;;13.13;51.06;100839.31;5083702;27;45509;-82
2022/03/11 03:07:57;;;;;;;;;23.50;16.00;;;;;13.18;51.42;100839.31;5048272;28;47232;-82
2022/03/11 03:10:23;;;;;;;;;26.00;22.75;;;;;13.14;51.44;100842.84;5082939;27;45295;-82
2022/03/11 03:12:48;;;;;;;;;21.00;19.75;;;;;13.08;51.55;100833.13;5081885;28;45474;-81
2022/03/11 03:15:14;;;;;;;;;20.50;19.50;;;;;13.03;51.50;100840.19;5082026;28;45232;-83
2022/03/11 03:17:39;;;;;;;;;23.00;19.75;;;;;12.97;51.66;100824.28;5082721;27;46404;-81
2022/03/11 03:20:05;;;;;;;;;16.75;16.25;;;;;12.95;51.76;100823.41;5083054;27;45370;-82
2022/03/11 03:22:31;;;;;;;;;20.25;18.25;;;;;12.90;51.90;100823.38;5081759;28;45395;-82
2022/03/11 03:24:56;;;;;;;;;20.75;15.75;;;;;12.86;52.08;100811.00;5080602;27;45203;-81
2022/03/11 03:27:22;;;;;;;;;18.75;18.75;;;;;12.84;51.96;100818.09;5079506;27;46455;-81
2022/03/11 03:29:47;;;;;;;;;23.50;22.00;;;;;12.78;52.11;100799.50;5078236;28;45269;-83
2022/03/11 03:32:13;;;;;;;;;19.75;16.25;;;;;12.78;52.21;100808.38;5079893;27;45308;-84
2022/03/11 03:34:38;;;;;;;;;22.25;20.00;;;;;12.75;52.29;100803.03;5079746;27;45401;-82
2022/03/11 03:37:07;;;;;;;;;23.00;20.25;;;;;12.74;52.45;100805.69;5078597;28;48523;-82
2022/03/11 03:39:33;;;;;;;;;23.75;18.25;;;;;12.72;52.53;100808.31;5061337;28;45340;-82
2022/03/11 03:41:58;;;;;;;;;21.50;18.25;;;;;12.69;52.28;100800.38;5078362;28;45261;-83
2022/03/11 03:44:24;;;;;;;;;19.75;18.00;;;;;12.68;52.53;100808.34;5095297;27;45605;-82
2022/03/11 03:46:49;;;;;;;;;20.50;18.75;;;;;12.63;52.25;100807.44;5077895;28;50327;-81
2022/03/11 03:49:15;;;;;;;;;22.50;19.00;;;;;12.62;52.63;100816.25;5078503;28;45829;-82
2022/03/11 03:51:40;;;;;;;;;22.50;19.50;;;;;12.54;52.83;100798.59;5079618;27;45535;-83
2022/03/11 03:54:12;;;;;;;;;22.25;19.25;;;;;12.57;52.78;100798.59;5078154;28;45517;-84
2022/03/11 03:56:38;;;;;;;;;17.50;17.50;;;;;12.50;52.88;100786.22;5079358;27;45744;-83
2022/03/11 03:59:07;;;;;;;;;19.75;17.00;;;;;12.48;52.90;100785.34;5077926;28;45410;-82
2022/03/11 04:01:36;;;;;;;;;22.00;20.00;;;;;12.45;52.84;100787.97;5078316;28;45365;-82
2022/03/11 04:04:03;;;;;;;;;22.25;20.50;;;;;12.48;53.02;100792.41;5078251;28;45315;-83
2022/03/11 04:06:29;;;;;;;;;19.50;16.50;;;;;12.45;53.04;100797.66;5078963;27;46626;-81
2022/03/11 04:08:57;;;;;;;;;21.50;18.25;;;;;12.43;53.20;100788.84;5077692;28;45397;-82
2022/03/11 04:11:23;;;;;;;;;20.75;17.25;;;;;12.41;53.23;100794.16;5078908;27;45338;-81
2022/03/11 04:13:50;;;;;;;;;20.00;16.75;;;;;12.38;53.35;100791.47;5077836;28;45315;-83
2022/03/11 04:16:16;;;;;;;;;26.25;19.00;;;;;12.33;53.62;100777.34;5077372;27;48514;-82
2022/03/11 04:18:42;;;;;;;;;24.00;18.00;;;;;12.34;53.76;100776.47;5077575;28;45911;-82
2022/03/11 04:21:07;;;;;;;;;20.25;17.50;;;;;12.29;53.60;100764.97;5079095;28;45332;-84
2022/03/11 04:23:32;;;;;;;;;19.50;14.25;;;;;12.35;53.56;100783.50;5079027;27;45559;-83
2022/03/11 04:25:58;;;;;;;;;20.50;15.75;;;;;12.30;53.64;100772.03;5078297;27;47396;-81
2022/03/11 04:28:23;;;;;;;;;17.75;15.25;;;;;12.29;53.66;100776.44;5077369;28;52512;-82
2022/03/11 04:30:49;;;;;;;;;20.50;16.75;;;;;12.28;54.04;100785.25;5094410;27;45177;-82
2022/03/11 04:33:14;;;;;;;;;21.50;16.50;;;;;12.28;54.00;100779.09;5078558;27;45235;-81
2022/03/11 04:35:39;;;;;;;;;15.50;12.75;;;;;12.22;54.13;100769.38;5078549;27;46381;-82
2022/03/11 04:38:05;;;;;;;;;19.00;15.00;;;;;12.22;54.32;100774.66;5078301;27;45261;-81
2022/03/11 04:40:30;;;;;;;;;23.00;17.25;;;;;12.23;54.30;100778.19;5078366;27;45826;-84
2022/03/11 04:42:56;;;;;;;;;13.00;12.75;;;;;12.23;54.34;100775.53;5077145;28;45208;-84
2022/03/11 04:45:21;;;;;;;;;15.25;12.25;;;;;12.23;54.40;100778.19;5078405;27;46365;-82
2022/03/11 04:47:46;;;;;;;;;18.50;13.50;;;;;12.23;54.57;100788.78;5077979;27;50989;-81
2022/03/11 04:50:12;;;;;;;;;18.50;16.50;;;;;12.23;54.87;100780.84;5077335;28;45394;-81
2022/03/11 04:52:37;;;;;;;;;15.50;15.00;;;;;12.18;54.63;100772.00;5077114;28;45501;-81
2022/03/11 04:55:03;;;;;;;;;14.50;13.25;;;;;12.16;55.27;100774.66;5076874;28;45804;-82
2022/03/11 04:57:29;;;;;;;;;16.00;12.50;;;;;12.14;54.95;100770.22;5078186;27;45394;-81
2022/03/11 04:59:54;;;;;;;;;18.50;13.75;;;;;12.12;55.01;100769.34;5078366;27;45500;-82
2022/03/11 05:02:26;;;;;;;;;17.25;12.00;;;;;12.14;54.98;100770.22;5077071;28;45513;-83
2022/03/11 05:04:52;;;;;;;;;13.50;11.00;;;;;12.13;54.88;100771.09;5076910;28;47326;-84
2022/03/11 05:07:18;;;;;;;;;15.00;12.50;;;;;12.12;54.90;100771.97;5077885;27;45354;-82
2022/03/11 05:09:43;;;;;;;;;16.00;16.00;;;;;12.10;55.10;100768.47;5077651;28;45257;-83
2022/03/11 05:12:09;;;;;;;;;21.00;13.75;;;;;12.12;55.45;100774.63;5074441;27;47055;-82
2022/03/11 05:14:34;;;;;;;;;13.75;12.50;;;;;12.10;55.41;100768.47;5074116;27;46533;-83
2022/03/11 05:17:00;;;;;;;;;12.75;11.25;;;;;12.08;55.16;100765.78;5071124;27;45499;-82
2022/03/11 05:19:26;;;;;;;;;12.50;11.00;;;;;12.04;55.40;100754.31;5076094;28;48266;-81
2022/03/11 05:21:52;;;;;;;;;6.75;6.25;;;;;12.07;55.54;100759.59;5076724;27;45528;-84
2022/03/11 05:24:17;;;;;;;;;15.50;11.25;;;;;12.06;55.33;100747.25;5076970;27;45915;-81
2022/03/11 05:26:43;;;;;;;;;12.75;11.25;;;;;12.06;55.22;100747.25;5073895;28;45418;-82
2022/03/11 05:29:08;;;;;;;;;12.25;11.50;;;;;12.05;55.40;100745.50;5059282;28;45251;-80
2022/03/11 05:31:34;;;;;;;;;13.50;13.50;;;;;12.01;55.33;100746.34;5092212;27;45350;-80
2022/03/11 05:33:59;;;;;;;;;11.00;10.50;;;;;12.01;56.00;100737.53;5057734;28;45400;-81
2022/03/11 05:36:25;;;;;;;;;14.75;11.50;;;;;12.01;55.76;100742.81;5073938;27;48765;-78
2022/03/11 05:38:50;;;;;;;;;9.25;9.25;;;;;11.97;55.93;100733.09;5073534;28;45465;-77
2022/03/11 05:41:16;;;;;;;;;13.00;11.25;;;;;11.97;55.81;100731.34;5077143;27;45438;-77
2022/03/11 05:43:41;;;;;;;;;14.25;12.00;;;;;11.93;55.65;100726.94;5077417;27;46470;-78
2022/03/11 05:46:07;;;;;;;;;14.75;11.50;;;;;11.94;55.99;100733.09;5077380;27;45435;-76
2022/03/11 05:48:32;;;;;;;;;14.25;11.75;;;;;11.95;55.81;100729.56;5076540;27;45375;-76
2022/03/11 05:50:58;;;;;;;;;15.75;12.50;;;;;11.90;55.94;100720.75;5077386;27;45637;-76
2022/03/11 05:53:23;;;;;;;;;15.00;12.00;;;;;11.92;56.39;100730.44;5077176;27;46104;-79
2022/03/11 05:55:49;;;;;;;;;10.75;8.50;;;;;11.92;56.20;100735.72;5075941;28;45439;-79
2022/03/11 05:58:14;;;;;;;;;14.00;11.00;;;;;11.90;56.21;100726.91;5077232;27;45389;-77
2022/03/11 06:00:40;;;;;;;;;11.00;8.75;;;;;11.89;56.26;100730.44;5077422;27;45336;-77
2022/03/11 06:03:06;;;;;;;;;11.75;10.00;;;;;11.89;56.55;100737.50;5041900;28;47195;-78
2022/03/11 06:05:31;;;;;;;;;13.75;11.00;;;;;11.87;56.06;100741.88;5077299;27;45333;-80
2022/03/11 06:07:57;;;;;;;;;11.75;10.50;;;;;11.88;56.19;100741.00;5076083;28;45389;-82
2022/03/11 06:10:22;;;;;;;;;12.75;9.50;;;;;11.88;56.25;100741.91;5077266;27;45631;-82
2022/03/11 06:12:47;;;;;;;;;10.00;10.00;;;;;11.88;56.40;100738.34;5076437;27;46386;-83
2022/03/11 06:15:14;;;;;;;;;14.50;11.00;;;;;11.86;56.83;100737.47;5076317;27;45427;-83
2022/03/11 06:17:40;;;;;;;;;9.50;9.50;;;;;11.89;56.51;100737.50;5076075;28;45315;-80
2022/03/11 06:20:08;;;;;;;;;11.25;10.00;;;;;11.88;56.21;100738.34;5075399;28;45296;-78
2022/03/11 06:22:35;;;;;;;;;12.33;11.00;;;;;11.90;56.38;100732.19;5075105;28;46785;-79
2022/03/11 06:25:00;;;;;;;;;12.33;10.00;;;;;11.91;56.29;100731.31;5086949;27;45964;-84
2022/03/11 06:27:26;;;;;;;;;15.50;10.25;;;;;11.87;56.96;100721.59;5075184;27;45433;-82
2022/03/11 06:29:52;;;;;;;;;11.25;9.50;;;;;11.83;57.95;100726.91;5073487;28;45429;-79
2022/03/11 06:32:17;;;;;;;;;13.75;10.00;;;;;11.74;58.10;100725.94;5076125;27;45881;-79
2022/03/11 06:34:43;;;;;;;;;15.50;10.50;;;;;11.65;58.46;100722.34;5074572;28;45477;-82
2022/03/11 06:37:08;;;;;;;;;9.00;8.00;;;;;11.61;58.75;100713.53;5074928;28;48437;-84
2022/03/11 06:39:33;;;;;;;;;9.75;9.75;;;;;11.61;58.84;100721.47;5055817;28;45448;-82
2022/03/11 06:41:59;;;;;;;;;10.50;10.00;;;;;11.60;58.78;100716.16;5074001;28;47315;-82
2022/03/11 06:44:24;;;;;;;;;10.50;10.50;;;;;11.59;58.40;100724.97;5074579;27;45442;-79
2022/03/11 06:46:50;;;;;;;;;10.50;10.50;;;;;11.59;59.10;100714.41;5075750;27;47024;-81
2022/03/11 06:49:15;;;;;;;;;15.00;11.50;;;;;11.61;58.76;100715.28;5075381;27;45337;-80
2022/03/11 06:51:41;;;;;;;;;10.50;9.50;;;;;11.64;58.83;100708.25;5069925;28;46614;-81
2022/03/11 06:54:07;;;;;;;;;12.25;10.75;;;;;11.72;58.36;100713.59;5073207;27;45386;-81
2022/03/11 06:56:34;;;;;;;;;8.25;8.25;;;;;11.76;58.99;100721.50;5075524;27;45317;-80
2022/03/11 06:58:59;;;;;;;;;10.75;10.75;;;;;11.76;58.52;100704.75;5076222;27;45302;-80
2022/03/11 07:01:24;;;;;;;;;10.75;9.25;;;;;11.70;58.70;100695.03;5078371;27;46724;-80
2022/03/11 07:03:50;;;;;;;;;11.00;8.00;;;;;11.76;58.69;100710.06;5078607;27;52429;-80
2022/03/11 07:06:16;;;;;;;;;11.75;10.25;;;;;11.70;58.73;100700.34;5078858;27;45286;-80
2022/03/11 07:08:41;;;;;;;;;10.00;8.75;;;;;11.70;58.73;100712.69;5079004;27;45334;-79
2022/03/11 07:11:07;;;;;;;;;11.00;10.00;;;;;11.67;58.85;100712.69;5079027;27;46536;-79
2022/03/11 07:13:32;;;;;;;;;14.75;9.75;;;;;11.70;58.53;100710.91;5078026;28;45432;-80
2022/03/11 07:15:58;;;;;;;;;8.33;8.33;;;;;11.70;59.27;100710.91;5077619;27;45384;-83
2022/03/11 07:18:24;;;;;;;;;10.67;9.33;;;;;11.73;58.90;100707.41;5078333;27;45557;-84
2022/03/11 07:20:49;;;;;;;;;9.67;9.67;;;;;11.84;58.41;100708.38;5076928;28;46689;-81
2022/03/11 07:23:15;;;;;;;;;16.33;8.33;;;;;11.91;58.03;100693.41;5077885;28;45465;-85
2022/03/11 07:25:40;;;;;;;;;10.00;9.00;;;;;11.97;57.69;100696.06;5095734;27;46011;-85
2022/03/11 07:28:06;;;;;;;;;9.50;9.50;;;;;11.99;57.46;100689.91;5062010;28;46078;-86
2022/03/11 07:30:31;;;;;;;;;7.50;7.50;;;;;12.07;57.42;100690.78;5078191;28;47392;-85
2022/03/11 07:32:56;;;;;;;;;9.33;8.00;;;;;12.04;57.51;100684.63;5079477;27;45442;-84
2022/03/11 07:35:22;;;;;;;;;12.75;9.00;;;;;12.07;57.27;100676.69;5079720;27;45374;-84
2022/03/11 07:37:47;;;;;;;;;9.00;8.00;;;;;12.22;57.11;100695.25;5079458;27;45371;-84
2022/03/11 07:40:13;;;;;;;;;12.33;9.67;;;;;12.27;57.08;100689.97;5061368;28;46701;-85
2022/03/11 07:42:42;;;;;;;;;11.00;8.00;;;;;12.30;56.89;100682.94;5061237;28;47710;-86
2022/03/11 07:45:10;;;;;;;;;10.67;8.33;;;;;12.33;56.79;100677.63;5079722;27;45314;-86
2022/03/11 07:47:36;;;;;;;;;10.33;6.67;;;;;12.39;56.68;100684.69;5078117;28;45406;-85
2022/03/11 07:50:02;;;;;;;;;8.00;8.00;;;;;12.43;56.74;100673.22;5078827;27;45399;-87
2022/03/11 07:52:27;;;;;;;;;7.33;7.33;;;;;12.47;56.56;100672.34;5176453;22;45538;-87
2022/03/11 07:54:52;;;;;;;;;9.33;7.00;;;;;12.51;56.54;100670.56;5055414;28;45416;-90
2022/03/11 07:57:18;;;;;;;;;10.33;7.67;;;;;12.47;56.49;100664.41;5019752;28;45440;-88
2022/03/11 07:59:44;;;;;;;;;10.33;9.00;;;;;12.53;56.42;100660.88;5045727;28;46748;-89
2022/03/11 08:02:09;;;;;;;;;12.00;9.00;;;;;12.56;56.13;100658.22;5031754;28;45356;-90
2022/03/11 08:04:35;;;;;;;;;11.33;9.00;;;;;12.58;56.15;100661.75;5038523;28;45245;-90
2022/03/11 08:07:06;;;;;;;;;12.33;8.00;;;;;12.49;56.27;100632.63;5038641;28;45676;-89
2022/03/11 08:09:32;;;;;;;;;11.00;9.00;;;;;12.55;56.08;100644.09;5024772;28;45424;-91
2022/03/11 08:11:58;;;;;;;;;8.33;6.00;;;;;12.60;56.22;100641.44;5039193;28;45846;-89
2022/03/11 08:14:24;;;;;;;;;11.00;6.00;;;;;12.74;55.79;100649.38;5031591;28;45544;-91
2022/03/11 08:16:49;;;;;;;;;11.00;8.00;;;;;12.84;55.86;100657.31;5019851;28;45515;-90
2022/03/11 08:19:15;;;;;;;;;5.67;5.67;;;;;12.82;55.72;100631.69;5038972;28;47533;-89
2022/03/11 08:21:40;;;;;;;;;9.00;6.67;;;;;12.99;55.70;100645.78;5027545;28;45416;-89
2022/03/11 08:24:06;;;;;;;;;7.00;7.00;;;;;13.08;55.28;100636.94;5042562;28;45309;-90
2022/03/11 08:26:32;;;;;;;;;8.33;6.00;;;;;13.10;55.03;100624.56;5052470;28;45421;-88
2022/03/11 08:28:58;;;;;;;;;8.67;7.00;;;;;13.16;55.38;100624.56;5042484;28;47729;-89
2022/03/11 08:31:23;;;;;;;;;11.33;7.67;;;;;13.32;54.84;100634.28;5044184;28;45209;-90
2022/03/11 08:33:49;;;;;;;;;10.00;7.00;;;;;13.42;54.63;100640.41;5041879;28;45267;-91
2022/03/11 08:36:14;;;;;;;;;7.00;7.00;;;;;13.39;54.37;100626.28;5022282;28;45531;-89
2022/03/11 08:38:40;;;;;;;;;8.67;7.00;;;;;13.48;54.24;100626.28;5057971;28;45405;-91
2022/03/11 08:41:07;;;;;;;;;7.67;5.00;;;;;13.49;54.51;100623.59;5037900;28;45357;-89
2022/03/11 08:43:34;;;;;;;;;6.00;6.00;;;;;13.47;54.35;100612.09;5059303;27;45365;-90
2022/03/11 08:46:01;;;;;;;;;8.33;6.67;;;;;13.57;54.18;100616.47;5024840;28;45532;-89
2022/03/11 08:48:28;;;;;;;;;7.33;7.33;;;;;13.63;54.34;100627.09;5056769;28;47577;-85
2022/03/11 08:50:53;;;;;;;;;7.00;6.33;;;;;13.67;54.12;100617.31;5054035;28;45442;-86
2022/03/11 08:53:19;;;;;;;;;7.00;7.00;;;;;13.77;53.43;100612.84;5053961;28;45596;-85
2022/03/11 08:55:44;;;;;;;;;7.00;7.00;;;;;13.81;53.73;100609.28;5052600;28;45399;-85
2022/03/11 08:58:09;;;;;;;;;6.67;6.67;;;;;13.88;53.77;100616.31;5052655;28;45877;-86
2022/03/11 09:00:35;;;;;;;;;8.00;6.00;;;;;13.93;53.77;100606.56;5049234;28;45514;-84
2022/03/11 09:03:00;;;;;;;;;9.00;6.00;;;;;14.04;53.36;100617.09;5044302;28;45521;-85
2022/03/11 09:05:26;;;;;;;;;7.00;5.00;;;;;14.12;53.61;100599.34;5055980;28;46399;-86
2022/03/11 09:07:51;;;;;;;;;4.67;4.67;;;;;14.18;53.06;100590.47;5056033;28;46492;-84
2022/03/11 09:10:18;;;;;;;;;5.33;4.00;;;;;14.29;53.27;100592.13;5049085;28;45416;-85
2022/03/11 09:12:43;;;;;;;;;8.00;7.00;;;;;14.44;52.63;100600.88;5048842;28;45459;-85
2022/03/11 09:15:10;;;;;;;;;6.00;5.00;;;;;14.40;51.91;100584.97;5054131;28;45657;-84
2022/03/11 09:17:35;;;;;;;;;4.67;4.67;;;;;14.36;52.29;100572.59;5053811;28;46724;-85
2022/03/11 09:20:05;;;;;;;;;4.33;4.33;;;;;14.41;52.70;100592.03;5032609;28;45558;-84
2022/03/11 09:22:31;;;;;;;;;5.33;5.00;;;;;14.44;52.04;100591.13;5037877;28;45493;-84
2022/03/11 09:24:57;;;;;;;;;5.00;5.00;;;;;14.46;51.75;100594.66;5055604;28;45579;-84
2022/03/11 09:27:23;;;;;;;;;6.00;4.00;;;;;14.46;52.31;100588.47;5047374;28;47754;-85
2022/03/11 09:29:49;;;;;;;;;9.67;5.00;;;;;14.46;51.96;100585.81;5047274;28;46416;-86
2022/03/11 09:32:14;;;;;;;;;4.67;4.00;;;;;14.45;51.81;100581.38;5041501;28;45386;-83
2022/03/11 09:34:40;;;;;;;;;3.00;3.00;;;;;14.51;51.17;100586.69;5045771;28;45747;-84
2022/03/11 09:37:06;;;;;;;;;5.00;3.67;;;;;14.57;51.48;100587.50;5055850;28;47097;-84
2022/03/11 09:39:32;;;;;;;;;3.00;3.00;;;;;14.65;51.31;100590.97;5051163;28;45558;-84
2022/03/11 09:41:57;;;;;;;;;4.67;4.67;;;;;14.72;50.72;100583.81;5052902;28;45496;-84
2022/03/11 09:44:24;;;;;;;;;3.67;3.67;;;;;14.78;51.03;100578.44;5056861;28;45226;-85
2022/03/11 09:46:49;;;;;;;;;4.33;3.00;;;;;14.80;50.79;100568.66;5048985;28;48333;-85
2022/03/11 09:49:15;;;;;;;;;5.00;3.00;;;;;14.85;51.23;100584.56;5048042;28;47623;-85
2022/03/11 09:51:41;;;;;;;;;3.67;2.00;;;;;14.93;50.89;100572.97;5051139;28;45479;-86
2022/03/11 09:54:07;;;;;;;;;6.00;4.00;;;;;15.03;50.56;100565.75;5041758;28;45484;-85
2022/03/11 09:56:36;;;;;;;;;4.00;4.00;;;;;15.12;50.81;100560.31;5053832;28;46508;-84
2022/03/11 09:59:01;;;;;;;;;1.33;1.33;;;;;15.10;50.27;100553.28;5048527;28;45305;-81
2022/03/11 10:01:27;;;;;;;;;3.67;2.33;;;;;15.08;50.23;100558.63;5030840;28;45383;-81
2022/03/11 10:03:53;;;;;;;;;3.00;3.00;;;;;14.99;49.88;100556.06;5048503;28;45630;-82
2022/03/11 10:06:54;;;;;;;;;4.00;4.00;;;;;14.88;50.49;100553.53;5050870;28;47100;-81
2022/03/11 10:09:19;;;;;;;;;3.00;3.00;;;;;14.83;51.49;100547.38;5012096;28;45388;-83
2022/03/11 10:11:55;;;;;;;;;5.00;4.00;;;;;14.77;51.47;100522.66;5035699;28;45553;-81
2022/03/11 10:14:27;;;;;;;;;4.33;4.00;;;;;14.87;52.36;100529.63;5049603;28;45601;-82
2022/03/11 10:16:53;;;;;;;;;5.00;3.00;;;;;14.88;52.57;100528.72;5047543;28;45814;-82
2022/03/11 10:19:19;;;;;;;;;5.00;2.33;;;;;14.96;52.51;100549.88;5054639;28;45466;-84
2022/03/11 10:21:45;;;;;;;;;4.00;4.00;;;;;14.96;52.46;100561.38;5055039;28;45256;-82
2022/03/11 10:24:15;;;;;;;;;3.00;3.00;;;;;14.95;52.68;100541.03;5038439;28;45520;-82
2022/03/11 10:26:41;;;;;;;;;4.00;4.00;;;;;15.10;52.16;100551.50;5048069;28;46179;-84
2022/03/11 10:29:09;;;;;;;;;8.00;4.67;;;;;15.23;52.77;100552.19;5046046;28;45602;-83
2022/03/11 10:31:37;;;;;;;;;5.00;4.00;;;;;15.32;52.52;100536.13;5055206;28;45660;-81
2022/03/11 10:34:15;;;;;;;;;5.00;3.33;;;;;15.45;52.27;100526.22;5056725;28;45552;-84
2022/03/11 10:36:50;;;;;;;;;4.67;4.67;;;;;15.51;52.08;100533.25;5059222;28;46150;-82
2022/03/11 10:39:18;;;;;;;;;7.33;6.00;;;;;15.45;52.44;100535.09;5058984;28;45445;-81
2022/03/11 10:41:44;;;;;;;;;6.00;3.33;;;;;15.39;52.08;100547.56;5056691;28;45520;-85
2022/03/11 10:44:09;;;;;;;;;3.00;3.00;;;;;15.25;52.05;100552.22;5059221;28;45223;-85
2022/03/11 10:46:35;;;;;;;;;2.33;2.33;;;;;15.24;50.97;100556.66;5058393;28;60041;-82
2022/03/11 10:49:00;;;;;;;;;2.00;2.00;;;;;15.16;51.53;100556.72;5058725;28;45266;-81
2022/03/11 10:51:31;;;;;;;;;4.00;4.00;;;;;15.09;52.33;100544.41;5058239;28;53856;-81
2022/03/11 10:53:57;;;;;;;;;5.00;3.67;;;;;15.12;53.38;100551.47;5041283;28;45521;-81
2022/03/11 10:56:33;;;;;;;;;3.33;3.33;;;;;15.12;53.25;100549.69;5059884;28;47818;-79
2022/03/11 10:58:59;;;;;;;;;3.67;3.33;;;;;15.17;54.29;100566.47;5048229;28;46494;-79
2022/03/11 11:01:37;;;;;;;;;4.00;4.00;;;;;15.16;54.59;100571.81;5059579;28;45512;-80
2022/03/11 11:04:04;;;;;;;;;3.33;2.00;;;;;15.14;54.68;100579.81;5059711;28;45525;-82
2022/03/11 11:06:29;;;;;;;;;5.00;3.67;;;;;15.11;54.89;100570.97;5059437;28;47445;-84
2022/03/11 11:08:55;;;;;;;;;3.33;3.33;;;;;15.04;55.23;100564.84;5041805;28;45553;-83